createdAt,value
2017-05-29T00:00:51.324Z,0
2017-05-29T00:02:07.328Z,0
2017-05-29T00:03:23.006Z,0
2017-05-29T00:04:39.775Z,0
2017-05-29T00:05:55.851Z,0
2017-05-29T00:07:11.946Z,0
2017-05-29T00:08:28.238Z,0
2017-05-29T00:09:44.588Z,0
2017-05-29T00:11:00.632Z,0
2017-05-29T00:12:16.782Z,0
2017-05-29T00:13:31.763Z,0
2017-05-29T00:14:48.068Z,0
2017-05-29T00:16:02.762Z,0
2017-05-29T00:17:18.839Z,0
2017-05-29T00:18:34.930Z,0
2017-05-29T00:19:51.414Z,0
2017-05-29T00:21:07.464Z,0
2017-05-29T00:22:22.148Z,0
2017-05-29T00:23:38.384Z,0
2017-05-29T00:24:54.816Z,0
2017-05-29T00:26:10.632Z,0
2017-05-29T00:27:26.635Z,0
2017-05-29T00:28:42.209Z,0
2017-05-29T00:29:57.829Z,0
2017-05-29T00:31:13.287Z,0
2017-05-29T00:32:28.793Z,0
2017-05-29T00:33:44.278Z,0
2017-05-29T00:34:58.461Z,0
2017-05-29T00:36:13.928Z,0
2017-05-29T00:37:29.437Z,0
2017-05-29T00:38:44.867Z,0
2017-05-29T00:40:00.529Z,0
2017-05-29T00:41:16.291Z,0
2017-05-29T00:42:31.779Z,0
2017-05-29T00:43:45.577Z,0
2017-05-29T00:45:01.268Z,0
2017-05-29T00:46:17.028Z,0
2017-05-29T00:47:32.448Z,0
2017-05-29T00:48:46.564Z,0
2017-05-29T00:50:02.221Z,0
2017-05-29T00:51:16.412Z,0
2017-05-29T00:52:32.043Z,0
2017-05-29T00:53:46.370Z,0
2017-05-29T00:55:02.208Z,0
2017-05-29T00:56:17.663Z,0
2017-05-29T00:57:30.574Z,0
2017-05-29T00:58:46.042Z,0
2017-05-29T01:00:01.695Z,0
2017-05-29T01:01:17.125Z,0
2017-05-29T01:02:32.551Z,0
2017-05-29T01:03:48.322Z,0
2017-05-29T01:05:03.761Z,0
2017-05-29T01:06:19.242Z,0
2017-05-29T01:07:34.724Z,0
2017-05-29T01:08:50.251Z,0
2017-05-29T01:10:05.861Z,0
2017-05-29T01:11:21.269Z,0
2017-05-29T01:12:35.489Z,0
2017-05-29T01:13:51.123Z,0
2017-05-29T01:15:05.447Z,0
2017-05-29T01:16:20.945Z,0
2017-05-29T01:17:36.389Z,0
2017-05-29T01:18:51.492Z,0
2017-05-29T01:20:07.168Z,0
2017-05-29T01:21:22.598Z,0
2017-05-29T01:22:38.077Z,0
2017-05-29T01:23:53.455Z,0
2017-05-29T01:25:09.135Z,0
2017-05-29T01:26:24.769Z,0
2017-05-29T01:27:40.221Z,0
2017-05-29T01:28:55.657Z,0
2017-05-29T01:30:11.295Z,0
2017-05-29T01:31:25.511Z,0
2017-05-29T01:32:39.670Z,0
2017-05-29T01:33:55.230Z,0
2017-05-29T01:35:10.890Z,0
2017-05-29T01:36:24.998Z,0
2017-05-29T01:37:40.501Z,0
2017-05-29T01:38:55.952Z,0
2017-05-29T01:40:11.612Z,0
2017-05-29T01:41:25.919Z,0
2017-05-29T01:42:38.598Z,0
2017-05-29T01:43:54.089Z,0
2017-05-29T01:45:09.712Z,0
2017-05-29T01:46:23.907Z,0
2017-05-29T01:47:38.066Z,0
2017-05-29T01:48:53.524Z,0
2017-05-29T01:50:08.969Z,0
2017-05-29T01:51:25.003Z,0
2017-05-29T01:52:39.368Z,0
2017-05-29T01:53:55.430Z,0
2017-05-29T01:55:10.690Z,0
2017-05-29T01:56:26.399Z,0
2017-05-29T01:57:39.274Z,0
2017-05-29T01:58:53.450Z,0
2017-05-29T02:00:08.940Z,0
2017-05-29T02:01:24.962Z,0
2017-05-29T02:02:40.394Z,0
2017-05-29T02:03:55.827Z,0
2017-05-29T02:05:11.285Z,0
2017-05-29T02:06:26.960Z,0
2017-05-29T02:07:42.418Z,0
2017-05-29T02:08:57.912Z,0
2017-05-29T02:10:13.369Z,0
2017-05-29T02:11:27.705Z,0
2017-05-29T02:12:39.129Z,0
2017-05-29T02:13:54.636Z,0
2017-05-29T02:15:10.099Z,0
2017-05-29T02:16:25.742Z,0
2017-05-29T02:17:41.178Z,4
2017-05-29T02:18:56.662Z,4
2017-05-29T02:20:11.773Z,0
2017-05-29T02:21:27.471Z,0
2017-05-29T02:22:42.898Z,4
2017-05-29T02:23:58.357Z,4
2017-05-29T02:25:13.822Z,4
2017-05-29T02:26:29.567Z,4
2017-05-29T02:27:45.076Z,4
2017-05-29T02:29:00.895Z,8
2017-05-29T02:30:16.434Z,8
2017-05-29T02:31:32.072Z,8
2017-05-29T02:32:47.499Z,12
2017-05-29T02:34:03.274Z,12
2017-05-29T02:35:17.627Z,12
2017-05-29T02:36:32.020Z,16
2017-05-29T02:37:47.517Z,16
2017-05-29T02:39:03.022Z,20
2017-05-29T02:40:18.659Z,28
2017-05-29T02:41:34.392Z,28
2017-05-29T02:42:49.868Z,32
2017-05-29T02:44:05.319Z,36
2017-05-29T02:45:21.040Z,44
2017-05-29T02:46:35.451Z,52
2017-05-29T02:47:50.951Z,60
2017-05-29T02:49:04.965Z,68
2017-05-29T02:50:20.486Z,80
2017-05-29T02:51:36.137Z,92
2017-05-29T02:52:51.596Z,108
2017-05-29T02:54:07.038Z,120
2017-05-29T02:55:22.634Z,140
2017-05-29T02:56:38.329Z,160
2017-05-29T02:57:53.771Z,184
2017-05-29T02:59:09.199Z,208
2017-05-29T03:00:24.576Z,232
2017-05-29T03:01:38.588Z,260
2017-05-29T03:02:54.005Z,288
2017-05-29T03:04:08.525Z,316
2017-05-29T03:05:22.724Z,344
2017-05-29T03:06:37.057Z,376
2017-05-29T03:07:52.566Z,412
2017-05-29T03:09:07.961Z,456
2017-05-29T03:10:23.406Z,504
2017-05-29T03:11:39.131Z,560
2017-05-29T03:12:54.604Z,616
2017-05-29T03:14:08.551Z,676
2017-05-29T03:15:24.011Z,744
2017-05-29T03:16:39.741Z,808
2017-05-29T03:17:55.394Z,872
2017-05-29T03:19:10.833Z,920
2017-05-29T03:20:26.309Z,960
2017-05-29T03:21:42.277Z,1004
2017-05-29T03:22:57.745Z,1048
2017-05-29T03:24:13.153Z,1088
2017-05-29T03:25:28.618Z,1132
2017-05-29T03:26:44.278Z,1168
2017-05-29T03:27:59.783Z,1208
2017-05-29T03:29:15.249Z,1244
2017-05-29T03:30:30.719Z,1284
2017-05-29T03:31:46.420Z,1316
2017-05-29T03:33:00.429Z,1348
2017-05-29T03:34:46.692Z,1392
2017-05-29T03:36:02.161Z,1436
2017-05-29T03:37:16.579Z,1492
2017-05-29T03:38:32.031Z,1556
2017-05-29T03:39:47.432Z,1584
2017-05-29T03:41:02.816Z,1620
2017-05-29T03:42:18.487Z,1656
2017-05-29T03:43:33.933Z,1680
2017-05-29T03:44:49.570Z,1712
2017-05-29T03:46:03.582Z,1748
2017-05-29T03:47:19.214Z,1776
2017-05-29T03:48:34.743Z,1788
2017-05-29T03:49:47.645Z,1804
2017-05-29T03:51:01.810Z,1824
2017-05-29T03:52:17.427Z,1860
2017-05-29T03:53:31.391Z,1892
2017-05-29T03:54:44.274Z,1920
2017-05-29T03:55:59.699Z,1948
2017-05-29T03:57:15.407Z,1960
2017-05-29T03:58:30.946Z,1976
2017-05-29T03:59:46.481Z,2008
2017-05-29T04:01:01.941Z,2048
2017-05-29T04:02:17.583Z,2084
2017-05-29T04:03:31.643Z,2108
2017-05-29T04:04:45.833Z,2128
2017-05-29T04:06:01.253Z,2148
2017-05-29T04:07:15.608Z,2148
2017-05-29T04:08:31.045Z,2100
2017-05-29T04:09:46.476Z,2044
2017-05-29T04:11:01.909Z,2020
2017-05-29T04:12:17.557Z,2020
2017-05-29T04:13:33.050Z,2048
2017-05-29T04:14:48.552Z,2112
2017-05-29T04:16:03.995Z,2220
2017-05-29T04:17:19.689Z,2356
2017-05-29T04:18:35.202Z,2476
2017-05-29T04:19:50.659Z,2572
2017-05-29T04:21:04.793Z,2620
2017-05-29T04:22:20.393Z,2644
2017-05-29T04:23:36.029Z,2640
2017-05-29T04:24:51.525Z,2636
2017-05-29T04:26:05.810Z,2668
2017-05-29T04:27:21.514Z,2708
2017-05-29T04:28:36.936Z,2728
2017-05-29T04:29:52.374Z,2760
2017-05-29T04:31:07.848Z,2876
2017-05-29T04:32:23.510Z,2984
2017-05-29T04:33:39.017Z,3184
2017-05-29T04:34:54.711Z,3448
2017-05-29T04:36:08.697Z,3768
2017-05-29T04:37:24.330Z,4076
2017-05-29T04:38:39.996Z,4344
2017-05-29T04:39:55.436Z,4636
2017-05-29T04:41:10.867Z,5036
2017-05-29T04:42:26.454Z,5376
2017-05-29T04:43:40.556Z,5388
2017-05-29T04:44:54.715Z,5368
2017-05-29T04:46:10.194Z,5476
2017-05-29T04:47:25.687Z,5576
2017-05-29T04:48:41.321Z,5732
2017-05-29T04:49:56.793Z,5816
2017-05-29T04:51:12.199Z,5872
2017-05-29T04:52:57.459Z,5896
2017-05-29T04:54:11.333Z,5908
2017-05-29T04:55:26.772Z,5952
2017-05-29T04:56:40.747Z,6000
2017-05-29T04:57:56.196Z,5852
2017-05-29T04:59:11.892Z,5736
2017-05-29T05:00:26.914Z,6052
2017-05-29T05:01:42.686Z,5684
2017-05-29T05:02:58.123Z,5932
2017-05-29T05:04:12.343Z,5636
2017-05-29T05:05:27.733Z,5560
2017-05-29T05:06:43.301Z,5512
2017-05-29T05:07:58.745Z,5464
2017-05-29T05:09:14.418Z,5444
2017-05-29T05:10:28.383Z,5476
2017-05-29T05:11:44.072Z,5540
2017-05-29T05:12:59.529Z,5628
2017-05-29T05:14:15.188Z,5692
2017-05-29T05:15:29.349Z,5684
2017-05-29T05:16:44.983Z,5636
2017-05-29T05:17:59.165Z,5512
2017-05-29T05:19:14.990Z,5300
2017-05-29T05:20:30.429Z,5064
2017-05-29T05:21:44.533Z,4928
2017-05-29T05:22:58.706Z,4968
2017-05-29T05:24:14.074Z,5172
2017-05-29T05:25:29.471Z,5432
2017-05-29T05:26:43.646Z,5688
2017-05-29T05:27:59.112Z,5944
2017-05-29T05:29:13.414Z,6216
2017-05-29T05:30:29.141Z,6472
2017-05-29T05:31:44.566Z,6684
2017-05-29T05:32:59.993Z,6852
2017-05-29T05:34:15.707Z,7040
2017-05-29T05:35:29.886Z,7264
2017-05-29T05:36:45.399Z,7492
2017-05-29T05:38:00.835Z,7684
2017-05-29T05:39:16.498Z,7852
2017-05-29T05:40:31.972Z,7952
2017-05-29T05:41:47.392Z,8024
2017-05-29T05:43:02.921Z,8048
2017-05-29T05:44:18.571Z,8020
2017-05-29T05:45:33.933Z,8008
2017-05-29T05:46:49.408Z,8088
2017-05-29T05:48:04.850Z,8180
2017-05-29T05:49:20.528Z,8280
2017-05-29T05:50:35.979Z,8464
2017-05-29T05:51:51.416Z,8672
2017-05-29T05:53:05.469Z,8888
2017-05-29T05:54:21.109Z,9088
2017-05-29T05:55:36.645Z,9244
2017-05-29T05:56:52.159Z,9376
2017-05-29T05:58:07.563Z,9432
2017-05-29T05:59:23.332Z,9448
2017-05-29T06:00:38.728Z,9440
2017-05-29T06:01:51.596Z,9496
2017-05-29T06:03:06.699Z,9604
2017-05-29T06:04:22.322Z,9784
2017-05-29T06:05:38.023Z,9796
2017-05-29T06:06:53.571Z,9740
2017-05-29T06:08:07.716Z,9652
2017-05-29T06:09:23.342Z,9688
2017-05-29T06:10:38.831Z,9792
2017-05-29T06:11:54.206Z,9868
2017-05-29T06:13:08.363Z,9936
2017-05-29T06:14:22.823Z,9772
2017-05-29T06:15:38.279Z,9332
2017-05-29T06:16:53.739Z,8780
2017-05-29T06:18:07.902Z,8304
2017-05-29T06:19:23.605Z,7996
2017-05-29T06:20:39.030Z,7840
2017-05-29T06:21:54.494Z,7872
2017-05-29T06:23:08.634Z,8024
2017-05-29T06:24:24.252Z,8280
2017-05-29T06:25:36.965Z,8552
2017-05-29T06:26:52.380Z,8780
2017-05-29T06:28:07.813Z,8908
2017-05-29T06:29:23.426Z,9064
2017-05-29T06:30:39.069Z,9404
2017-05-29T06:31:53.189Z,9808
2017-05-29T06:33:08.692Z,10152
2017-05-29T06:34:23.840Z,10232
2017-05-29T06:35:37.762Z,10232
2017-05-29T06:36:53.186Z,10340
2017-05-29T06:38:06.126Z,10584
2017-05-29T06:39:21.572Z,10828
2017-05-29T06:40:36.229Z,11136
2017-05-29T06:41:51.748Z,11436
2017-05-29T06:43:05.740Z,11464
2017-05-29T06:44:21.245Z,11352
2017-05-29T06:45:36.863Z,11308
2017-05-29T06:46:52.348Z,11392
2017-05-29T06:48:06.579Z,11536
2017-05-29T06:49:22.013Z,11528
2017-05-29T06:50:36.353Z,11484
2017-05-29T06:51:51.796Z,11588
2017-05-29T06:53:07.593Z,11932
2017-05-29T06:54:22.987Z,12488
2017-05-29T06:55:38.661Z,13104
2017-05-29T06:56:52.497Z,13640
2017-05-29T06:58:06.517Z,14080
2017-05-29T06:59:22.006Z,14340
2017-05-29T07:00:37.657Z,14016
2017-05-29T07:01:51.889Z,13928
2017-05-29T07:03:07.659Z,14280
2017-05-29T07:04:23.145Z,15036
2017-05-29T07:05:37.337Z,15968
2017-05-29T07:06:51.495Z,16512
2017-05-29T07:08:06.949Z,16608
2017-05-29T07:09:22.480Z,16544
2017-05-29T07:10:36.625Z,16608
2017-05-29T07:11:52.314Z,17216
2017-05-29T07:13:07.703Z,17856
2017-05-29T07:14:21.871Z,18080
2017-05-29T07:15:35.988Z,18400
2017-05-29T07:16:51.671Z,18144
2017-05-29T07:18:07.122Z,17696
2017-05-29T07:19:21.138Z,17344
2017-05-29T07:20:36.630Z,17408
2017-05-29T07:21:52.311Z,17600
2017-05-29T07:23:07.809Z,17440
2017-05-29T07:24:21.938Z,17024
2017-05-29T07:25:37.360Z,16896
2017-05-29T07:26:53.089Z,17312
2017-05-29T07:28:07.087Z,18208
2017-05-29T07:29:22.501Z,18784
2017-05-29T07:30:36.685Z,18944
2017-05-29T07:31:52.404Z,18752
2017-05-29T07:33:07.902Z,18624
2017-05-29T07:34:23.384Z,18720
2017-05-29T07:35:38.832Z,18912
2017-05-29T07:36:54.510Z,18912
2017-05-29T07:38:10.012Z,18592
2017-05-29T07:39:25.453Z,18528
2017-05-29T07:40:40.927Z,19104
2017-05-29T07:41:56.573Z,19840
2017-05-29T07:43:12.030Z,19616
2017-05-29T07:44:26.241Z,19264
2017-05-29T07:45:41.715Z,19136
2017-05-29T07:46:57.402Z,19488
2017-05-29T07:48:12.846Z,19104
2017-05-29T07:49:28.317Z,20800
2017-05-29T07:50:42.457Z,20576
2017-05-29T07:51:58.419Z,22496
2017-05-29T07:53:13.891Z,23552
2017-05-29T07:54:29.455Z,26080
2017-05-29T07:55:45.035Z,25152
2017-05-29T07:57:00.748Z,24736
2017-05-29T07:58:15.876Z,24800
2017-05-29T07:59:30.041Z,24256
2017-05-29T08:00:45.494Z,23872
2017-05-29T08:02:01.150Z,23104
2017-05-29T08:03:16.623Z,22752
2017-05-29T08:04:30.836Z,22688
2017-05-29T08:05:45.054Z,22752
2017-05-29T08:07:00.953Z,22752
2017-05-29T08:08:16.705Z,22528
2017-05-29T08:09:32.181Z,21536
2017-05-29T08:10:47.618Z,20864
2017-05-29T08:12:02.126Z,20800
2017-05-29T08:13:17.870Z,21632
2017-05-29T08:14:33.278Z,22592
2017-05-29T08:15:49.087Z,23456
2017-05-29T08:17:03.301Z,23808
2017-05-29T08:18:18.790Z,23200
2017-05-29T08:19:34.476Z,22176
2017-05-29T08:20:48.533Z,20896
2017-05-29T08:22:04.167Z,19904
2017-05-29T08:23:19.666Z,19168
2017-05-29T08:24:35.140Z,19104
2017-05-29T08:25:50.699Z,19616
2017-05-29T08:27:06.474Z,20480
2017-05-29T08:28:22.005Z,21792
2017-05-29T08:29:37.401Z,22624
2017-05-29T08:30:51.545Z,23136
2017-05-29T08:32:06.973Z,23744
2017-05-29T08:33:21.228Z,24288
2017-05-29T08:34:36.667Z,24320
2017-05-29T08:35:52.135Z,25056
2017-05-29T08:37:07.908Z,25920
2017-05-29T08:38:23.707Z,27040
2017-05-29T08:39:39.174Z,31296
2017-05-29T08:40:54.690Z,27424
2017-05-29T08:42:10.471Z,26272
2017-05-29T08:43:25.933Z,24640
2017-05-29T08:44:41.396Z,25024
2017-05-29T08:45:56.866Z,27584
2017-05-29T08:47:12.562Z,29664
2017-05-29T08:48:26.672Z,35904
2017-05-29T08:49:40.853Z,33920
2017-05-29T08:50:56.514Z,38240
2017-05-29T08:52:10.913Z,49824
2017-05-29T08:53:26.395Z,47072
2017-05-29T08:54:42.140Z,52352
2017-05-29T08:55:57.537Z,44128
2017-05-29T08:57:11.967Z,40320
2017-05-29T08:58:26.112Z,40512
2017-05-29T08:59:41.580Z,42048
2017-05-29T09:00:57.039Z,43840
2017-05-29T09:02:12.349Z,41824
2017-05-29T09:03:27.846Z,45600
2017-05-29T09:04:43.331Z,44768
2017-05-29T09:05:58.814Z,43808
2017-05-29T09:07:11.665Z,57344
2017-05-29T09:08:27.309Z,42592
2017-05-29T09:09:41.718Z,38400
2017-05-29T09:10:56.846Z,40320
2017-05-29T09:12:11.000Z,42912
2017-05-29T09:13:26.763Z,49536
2017-05-29T09:14:42.436Z,47072
2017-05-29T09:15:56.564Z,42208
2017-05-29T09:17:12.057Z,46368
2017-05-29T09:18:27.599Z,46912
2017-05-29T09:19:43.241Z,48992
2017-05-29T09:20:58.748Z,52064
2017-05-29T09:22:14.202Z,45600
2017-05-29T09:23:29.661Z,45216
2017-05-29T09:24:45.285Z,53216
2017-05-29T09:25:59.419Z,46592
2017-05-29T09:27:14.952Z,58912
2017-05-29T09:28:30.426Z,71392
2017-05-29T09:29:45.891Z,51680
2017-05-29T09:30:59.755Z,47776
2017-05-29T09:32:15.258Z,52704
2017-05-29T09:33:29.718Z,60864
2017-05-29T09:34:43.719Z,80064
2017-05-29T09:35:57.842Z,61536
2017-05-29T09:37:13.381Z,69728
2017-05-29T09:38:29.078Z,50272
2017-05-29T09:39:44.587Z,71872
2017-05-29T09:40:58.622Z,60224
2017-05-29T09:42:14.079Z,55136
2017-05-29T09:43:29.992Z,59936
2017-05-29T09:44:45.492Z,56896
2017-05-29T09:46:01.020Z,45568
2017-05-29T09:47:16.528Z,49856
2017-05-29T09:48:32.123Z,140672
2017-05-29T09:49:46.142Z,56864
2017-05-29T09:51:01.589Z,49952
2017-05-29T09:52:15.814Z,48192
2017-05-29T09:53:30.239Z,57696
2017-05-29T09:54:45.729Z,80000
2017-05-29T09:55:59.862Z,100288
2017-05-29T09:57:15.326Z,106624
2017-05-29T09:58:29.510Z,103744
2017-05-29T09:59:45.228Z,95488
2017-05-29T10:01:00.790Z,90464
2017-05-29T10:02:14.846Z,94464
2017-05-29T10:03:30.506Z,90528
2017-05-29T10:04:46.726Z,87040
2017-05-29T10:06:00.851Z,105024
2017-05-29T10:07:16.341Z,117248
2017-05-29T10:08:31.830Z,104800
2017-05-29T10:09:47.614Z,98336
2017-05-29T10:11:03.074Z,107872
2017-05-29T10:12:18.613Z,108544
2017-05-29T10:13:34.111Z,110624
2017-05-29T10:14:49.804Z,124128
2017-05-29T10:16:05.432Z,127328
2017-05-29T10:17:21.123Z,111840
2017-05-29T10:18:36.665Z,108992
2017-05-29T10:19:52.341Z,111520
2017-05-29T10:21:06.492Z,97376
2017-05-29T10:22:21.991Z,96736
2017-05-29T10:23:37.492Z,121568
2017-05-29T10:24:53.194Z,115264
2017-05-29T10:26:08.672Z,90400
2017-05-29T10:27:24.440Z,92448
2017-05-29T10:28:38.604Z,105120
2017-05-29T10:29:54.496Z,127680
2017-05-29T10:31:08.696Z,144320
2017-05-29T10:32:22.852Z,125920
2017-05-29T10:33:38.319Z,95584
2017-05-29T10:34:54.011Z,91520
2017-05-29T10:36:08.167Z,87840
2017-05-29T10:37:23.701Z,74176
2017-05-29T10:38:39.152Z,79776
2017-05-29T10:39:54.831Z,100704
2017-05-29T10:41:10.400Z,127968
2017-05-29T10:42:25.877Z,150752
2017-05-29T10:43:40.064Z,144352
2017-05-29T10:44:54.411Z,120864
2017-05-29T10:46:09.936Z,112192
2017-05-29T10:47:25.728Z,108544
2017-05-29T10:48:41.253Z,102688
2017-05-29T10:49:57.006Z,121856
2017-05-29T10:51:12.677Z,133440
2017-05-29T10:52:28.186Z,108768
2017-05-29T10:53:43.603Z,91680
2017-05-29T10:54:57.850Z,107072
2017-05-29T10:56:13.328Z,117888
2017-05-29T10:57:28.826Z,125152
2017-05-29T10:58:42.996Z,130944
2017-05-29T10:59:57.394Z,108576
2017-05-29T11:01:12.890Z,99648
2017-05-29T11:02:28.322Z,115360
2017-05-29T11:03:44.011Z,98720
2017-05-29T11:04:59.682Z,83264
2017-05-29T11:06:13.862Z,113856
2017-05-29T11:07:29.337Z,129984
2017-05-29T11:08:44.886Z,109600
2017-05-29T11:09:59.205Z,109728
2017-05-29T11:11:14.630Z,130464
2017-05-29T11:12:30.088Z,118144
2017-05-29T11:13:44.359Z,76704
2017-05-29T11:14:59.642Z,72768
2017-05-29T11:16:14.137Z,123264
2017-05-29T11:17:29.602Z,158528
2017-05-29T11:18:45.102Z,138464
2017-05-29T11:20:00.782Z,126976
2017-05-29T11:21:16.367Z,149728
2017-05-29T11:22:30.566Z,160064
2017-05-29T11:23:44.765Z,139264
2017-05-29T11:25:00.509Z,112608
2017-05-29T11:26:16.009Z,110688
2017-05-29T11:27:31.530Z,114208
2017-05-29T11:28:46.968Z,94112
2017-05-29T11:30:02.640Z,74496
2017-05-29T11:31:18.158Z,93056
2017-05-29T11:32:33.606Z,135392
2017-05-29T11:33:49.832Z,129856
2017-05-29T11:35:05.472Z,94688
2017-05-29T11:36:19.508Z,93376
2017-05-29T11:37:33.698Z,99680
2017-05-29T11:38:49.396Z,80960
2017-05-29T11:40:03.884Z,72000
2017-05-29T11:41:18.374Z,111296
2017-05-29T11:42:33.896Z,151168
2017-05-29T11:43:49.356Z,132512
2017-05-29T11:45:05.126Z,106976
2017-05-29T11:46:20.798Z,116192
2017-05-29T11:47:36.278Z,125792
2017-05-29T11:48:51.788Z,105248
2017-05-29T11:50:07.579Z,78016
2017-05-29T11:51:23.412Z,87328
2017-05-29T11:52:38.886Z,111456
2017-05-29T11:53:54.325Z,121568
2017-05-29T11:55:09.409Z,118912
2017-05-29T11:56:22.397Z,116800
2017-05-29T11:57:36.612Z,114368
2017-05-29T11:58:52.111Z,113344
2017-05-29T12:00:07.652Z,124928
2017-05-29T12:01:22.330Z,133888
2017-05-29T12:02:37.804Z,114560
2017-05-29T12:03:52.075Z,97408
2017-05-29T12:05:07.609Z,106240
2017-05-29T12:06:21.869Z,124736
2017-05-29T12:07:35.999Z,126240
2017-05-29T12:08:51.528Z,112960
2017-05-29T12:10:06.972Z,98368
2017-05-29T12:11:22.980Z,110208
2017-05-29T12:12:38.398Z,119680
2017-05-29T12:13:52.607Z,98816
2017-05-29T12:15:08.068Z,76352
2017-05-29T12:16:23.753Z,78080
2017-05-29T12:17:39.187Z,94720
2017-05-29T12:18:54.709Z,108928
2017-05-29T12:20:10.149Z,109792
2017-05-29T12:21:25.921Z,99040
2017-05-29T12:22:37.464Z,85280
2017-05-29T12:23:51.452Z,82400
2017-05-29T12:25:06.913Z,97248
2017-05-29T12:26:22.958Z,113472
2017-05-29T12:27:38.473Z,104480
2017-05-29T12:28:53.924Z,91616
2017-05-29T12:30:08.093Z,97920
2017-05-29T12:31:24.095Z,113984
2017-05-29T12:32:39.628Z,111424
2017-05-29T12:33:53.699Z,78976
2017-05-29T12:35:09.207Z,60224
2017-05-29T12:36:24.551Z,67168
2017-05-29T12:37:40.117Z,74048
2017-05-29T12:38:55.547Z,79008
2017-05-29T12:40:09.777Z,94368
2017-05-29T12:41:25.698Z,105856
2017-05-29T12:42:38.573Z,102400
2017-05-29T12:43:52.565Z,85312
2017-05-29T12:45:06.692Z,79904
2017-05-29T12:46:22.428Z,87872
2017-05-29T12:47:37.931Z,96768
2017-05-29T12:48:53.662Z,83680
2017-05-29T12:50:09.184Z,63360
2017-05-29T12:51:24.891Z,72576
2017-05-29T12:52:40.678Z,103104
2017-05-29T12:53:54.905Z,113600
2017-05-29T12:55:10.427Z,93408
2017-05-29T12:56:26.107Z,79680
2017-05-29T12:57:41.696Z,88000
2017-05-29T12:58:57.151Z,90400
2017-05-29T13:00:12.660Z,83072
2017-05-29T13:01:28.469Z,78272
2017-05-29T13:02:44.077Z,77312
2017-05-29T13:03:59.608Z,84512
2017-05-29T13:05:13.673Z,82016
2017-05-29T13:06:29.487Z,70400
2017-05-29T13:07:44.620Z,66464
2017-05-29T13:08:59.763Z,73600
2017-05-29T13:10:15.292Z,81248
2017-05-29T13:11:30.926Z,88672
2017-05-29T13:12:45.173Z,91552
2017-05-29T13:14:00.288Z,89024
2017-05-29T13:15:14.385Z,85952
2017-05-29T13:16:29.914Z,83584
2017-05-29T13:17:45.600Z,83744
2017-05-29T13:19:01.085Z,88704
2017-05-29T13:20:16.560Z,100608
2017-05-29T13:21:31.973Z,99200
2017-05-29T13:22:47.686Z,80672
2017-05-29T13:24:03.184Z,70912
2017-05-29T13:25:17.256Z,84128
2017-05-29T13:26:31.644Z,97632
2017-05-29T13:27:46.298Z,98176
2017-05-29T13:29:01.411Z,91232
2017-05-29T13:30:16.887Z,86720
2017-05-29T13:31:32.378Z,68192
2017-05-29T13:32:48.371Z,63136
2017-05-29T13:34:02.384Z,91328
2017-05-29T13:35:17.820Z,111296
2017-05-29T13:36:33.385Z,86592
2017-05-29T13:37:49.092Z,46592
2017-05-29T13:39:04.571Z,51232
2017-05-29T13:40:18.851Z,89568
2017-05-29T13:41:34.404Z,116448
2017-05-29T13:42:50.215Z,83840
2017-05-29T13:44:05.662Z,38048
2017-05-29T13:45:21.129Z,49472
2017-05-29T13:46:35.140Z,93376
2017-05-29T13:47:50.907Z,100768
2017-05-29T13:49:06.596Z,74848
2017-05-29T13:50:22.081Z,63040
2017-05-29T13:51:37.580Z,69888
2017-05-29T13:52:53.236Z,83072
2017-05-29T13:54:08.734Z,81536
2017-05-29T13:55:24.276Z,57024
2017-05-29T13:56:39.883Z,59552
2017-05-29T13:57:55.567Z,77376
2017-05-29T13:59:09.669Z,87648
2017-05-29T14:00:25.134Z,66304
2017-05-29T14:01:40.612Z,57824
2017-05-29T14:02:53.507Z,73344
2017-05-29T14:04:09.032Z,80576
2017-05-29T14:05:24.515Z,75808
2017-05-29T14:06:40.051Z,73248
2017-05-29T14:07:55.757Z,74528
2017-05-29T14:09:11.312Z,72352
2017-05-29T14:10:26.930Z,72672
2017-05-29T14:11:42.597Z,72192
2017-05-29T14:12:57.146Z,65440
2017-05-29T14:14:12.671Z,66400
2017-05-29T14:15:28.096Z,73792
2017-05-29T14:16:43.561Z,73984
2017-05-29T14:17:59.487Z,78688
2017-05-29T14:19:15.027Z,92704
2017-05-29T14:20:30.516Z,98080
2017-05-29T14:21:46.270Z,82368
2017-05-29T14:23:01.924Z,69024
2017-05-29T14:24:17.461Z,60800
2017-05-29T14:25:32.886Z,52448
2017-05-29T14:26:46.683Z,57088
2017-05-29T14:28:02.379Z,67168
2017-05-29T14:29:17.888Z,70304
2017-05-29T14:30:33.011Z,57920
2017-05-29T14:31:48.617Z,46720
2017-05-29T14:33:03.299Z,55520
2017-05-29T14:34:18.460Z,76160
2017-05-29T14:35:34.086Z,79744
2017-05-29T14:36:49.303Z,70240
2017-05-29T14:38:04.956Z,59008
2017-05-29T14:39:19.101Z,68096
2017-05-29T14:40:34.693Z,97952
2017-05-29T14:41:50.162Z,97504
2017-05-29T14:43:05.921Z,67296
2017-05-29T14:44:21.396Z,59936
2017-05-29T14:45:35.686Z,69280
2017-05-29T14:46:49.855Z,72448
2017-05-29T14:48:05.595Z,68320
2017-05-29T14:49:20.017Z,59360
2017-05-29T14:50:35.470Z,48160
2017-05-29T14:51:49.658Z,48256
2017-05-29T14:53:05.380Z,49024
2017-05-29T14:54:20.866Z,53792
2017-05-29T14:55:35.041Z,62880
2017-05-29T14:56:50.555Z,58560
2017-05-29T14:58:06.306Z,51008
2017-05-29T14:59:22.105Z,66272
2017-05-29T15:00:37.578Z,72544
2017-05-29T15:01:53.124Z,56256
2017-05-29T15:03:08.890Z,34976
2017-05-29T15:04:24.449Z,18176
2017-05-29T15:05:40.129Z,15636
2017-05-29T15:06:54.468Z,14884
2017-05-29T15:08:08.713Z,14672
2017-05-29T15:09:24.171Z,14268
2017-05-29T15:10:39.923Z,13984
2017-05-29T15:11:55.455Z,13708
2017-05-29T15:13:10.794Z,13368
2017-05-29T15:14:26.262Z,13048
2017-05-29T15:15:41.818Z,12812
2017-05-29T15:16:57.376Z,12640
2017-05-29T15:18:13.271Z,12492
2017-05-29T15:19:27.488Z,12324
2017-05-29T15:20:43.003Z,12180
2017-05-29T15:21:58.495Z,12060
2017-05-29T15:23:14.098Z,11968
2017-05-29T15:24:29.586Z,11892
2017-05-29T15:25:45.142Z,11780
2017-05-29T15:27:00.715Z,11684
2017-05-29T15:28:15.081Z,11572
2017-05-29T15:29:30.567Z,11484
2017-05-29T15:30:46.319Z,11404
2017-05-29T15:32:00.398Z,11320
2017-05-29T15:33:16.067Z,11264
2017-05-29T15:34:30.237Z,11192
2017-05-29T15:35:44.545Z,11168
2017-05-29T15:37:00.024Z,11132
2017-05-29T15:38:14.199Z,11064
2017-05-29T15:39:29.886Z,10992
2017-05-29T15:40:43.864Z,10936
2017-05-29T15:41:59.366Z,10876
2017-05-29T15:43:14.842Z,10824
2017-05-29T15:44:30.607Z,10784
2017-05-29T15:45:46.086Z,10744
2017-05-29T15:47:01.547Z,10680
2017-05-29T15:48:17.081Z,10608
2017-05-29T15:49:32.887Z,10548
2017-05-29T15:50:48.366Z,10524
2017-05-29T15:52:02.559Z,10444
2017-05-29T15:53:16.355Z,10308
2017-05-29T15:54:32.163Z,10080
2017-05-29T15:55:47.908Z,9896
2017-05-29T15:57:02.442Z,9780
2017-05-29T15:58:18.027Z,9680
2017-05-29T15:59:33.660Z,9588
2017-05-29T16:00:49.127Z,9504
2017-05-29T16:02:04.694Z,9436
2017-05-29T16:03:20.140Z,9440
2017-05-29T16:04:34.563Z,9388
2017-05-29T16:05:50.045Z,9272
2017-05-29T16:07:05.758Z,9112
2017-05-29T16:08:21.273Z,9024
2017-05-29T16:09:36.845Z,8896
2017-05-29T16:10:52.333Z,8776
2017-05-29T16:12:07.813Z,8696
2017-05-29T16:13:22.043Z,8644
2017-05-29T16:14:37.846Z,8600
2017-05-29T16:15:52.004Z,8596
2017-05-29T16:17:07.529Z,8612
2017-05-29T16:18:23.291Z,8592
2017-05-29T16:19:39.117Z,8448
2017-05-29T16:20:54.615Z,8268
2017-05-29T16:22:10.242Z,8120
2017-05-29T16:23:25.974Z,7984
2017-05-29T16:24:41.749Z,7856
2017-05-29T16:25:57.484Z,7704
2017-05-29T16:27:12.992Z,7568
2017-05-29T16:28:28.507Z,7424
2017-05-29T16:29:44.258Z,7292
2017-05-29T16:30:59.770Z,7172
2017-05-29T16:32:14.989Z,7056
2017-05-29T16:33:30.445Z,6916
2017-05-29T16:34:46.137Z,6788
2017-05-29T16:35:58.843Z,6672
2017-05-29T16:37:14.329Z,6548